createdAt,value
2023-07-31T00:04:24.311Z,0.50
2023-07-31T00:09:26.228Z,0.40
2023-07-31T00:14:28.440Z,0.30
2023-07-31T00:19:30.480Z,0.40
2023-07-31T00:24:32.734Z,0.30
2023-07-31T00:29:34.789Z,0.30
2023-07-31T00:34:36.892Z,0.40
2023-07-31T00:39:38.969Z,0.30
2023-07-31T00:44:41.029Z,0.30
2023-07-31T00:49:43.261Z,0.30
2023-07-31T00:54:45.832Z,0.30
2023-07-31T00:59:47.885Z,0.50
2023-07-31T01:04:53.115Z,0.30
2023-07-31T01:10:22.394Z,0.30
2023-07-31T01:15:24.671Z,0.30
2023-07-31T01:20:28.203Z,0.40
2023-07-31T01:25:53.772Z,0.50
2023-07-31T01:31:00.637Z,0.40
2023-07-31T01:36:03.236Z,0.30
2023-07-31T01:41:05.287Z,0.30
2023-07-31T01:51:10.150Z,0.40
2023-07-31T01:56:12.313Z,0.40
2023-07-31T02:01:14.209Z,0.20
2023-07-31T02:06:16.230Z,0.40
2023-07-31T02:11:19.446Z,0.30
2023-07-31T02:16:21.468Z,0.30
2023-07-31T02:21:23.918Z,0.30
2023-07-31T02:26:25.972Z,0.30
2023-07-31T02:31:27.995Z,0.50
2023-07-31T02:36:29.963Z,0.50
2023-07-31T02:46:33.956Z,0.40
2023-07-31T02:51:36.026Z,0.60
2023-07-31T02:56:38.374Z,0.40
2023-07-31T03:01:40.626Z,0.40
2023-07-31T03:06:42.736Z,0.40
2023-07-31T03:11:44.838Z,0.60
2023-07-31T03:16:46.976Z,0.50
2023-07-31T03:21:49.078Z,0.40
2023-07-31T03:26:51.071Z,0.40
2023-07-31T03:31:53.114Z,0.40
2023-07-31T03:36:55.125Z,0.40
2023-07-31T03:41:57.131Z,0.50
2023-07-31T03:46:59.515Z,0.40
2023-07-31T03:52:05.310Z,0.50
2023-07-31T03:57:07.399Z,0.50
2023-07-31T04:02:09.293Z,0.50
2023-07-31T04:07:18.603Z,0.40
2023-07-31T04:12:20.555Z,0.50
2023-07-31T04:22:24.402Z,0.70
2023-07-31T04:27:26.696Z,0.50
2023-07-31T04:32:30.166Z,0.40
2023-07-31T04:37:32.119Z,0.50
2023-07-31T04:42:34.011Z,0.50
2023-07-31T04:52:37.733Z,0.40
2023-07-31T04:57:39.840Z,0.40
2023-07-31T05:02:41.760Z,0.30
2023-07-31T05:07:44.021Z,0.30
2023-07-31T05:12:46.016Z,0.50
2023-07-31T05:17:47.979Z,0.30
2023-07-31T05:22:50.035Z,0.40
2023-07-31T05:27:51.982Z,0.30
2023-07-31T05:32:53.926Z,0.30
2023-07-31T05:37:56.110Z,0.30
2023-07-31T05:42:57.958Z,0.30
2023-07-31T05:47:59.924Z,0.60
2023-07-31T05:53:01.837Z,0.40
2023-07-31T05:58:03.890Z,0.30
2023-07-31T06:03:05.967Z,0.20
2023-07-31T06:08:08.015Z,0.30
2023-07-31T06:13:10.341Z,0.20
2023-07-31T06:18:12.451Z,0.20
2023-07-31T06:23:14.355Z,0.40
2023-07-31T06:28:16.436Z,0.40
2023-07-31T06:33:18.728Z,0.30
2023-07-31T06:38:26.524Z,0.30
2023-07-31T06:43:29.570Z,0.20
2023-07-31T06:48:31.876Z,0.30
2023-07-31T06:53:33.968Z,0.30
2023-07-31T06:58:35.805Z,0.30
2023-07-31T07:03:37.806Z,0.20
2023-07-31T07:08:40.009Z,0.20
2023-07-31T07:13:42.119Z,0.20
2023-07-31T07:18:58.417Z,0.30
2023-07-31T07:24:05.955Z,0.20
2023-07-31T07:29:09.277Z,0.30
2023-07-31T07:34:11.260Z,0.20
2023-07-31T07:39:13.479Z,0.20
2023-07-31T07:44:15.725Z,0.20
2023-07-31T07:49:17.903Z,0.30
2023-07-31T07:54:21.483Z,0.30
2023-07-31T07:59:23.451Z,0.30
2023-07-31T08:04:25.561Z,0.30
2023-07-31T08:09:27.426Z,0.50
2023-07-31T08:14:31.379Z,0.70
2023-07-31T08:19:35.482Z,0.20
2023-07-31T08:24:37.389Z,0.30
2023-07-31T08:29:39.580Z,0.50
2023-07-31T08:34:43.500Z,0.40
2023-07-31T08:39:45.516Z,0.20
2023-07-31T08:44:48.677Z,0.30
2023-07-31T08:49:52.466Z,0.20
2023-07-31T08:54:54.536Z,0.20
2023-07-31T08:59:58.864Z,0.30
2023-07-31T09:05:01.443Z,0.40
2023-07-31T09:10:05.047Z,0.40
2023-07-31T09:15:07.934Z,0.10
2023-07-31T09:20:22.677Z,0.40
2023-07-31T09:25:26.828Z,0.40
2023-07-31T09:30:29.069Z,0.30
2023-07-31T09:35:35.642Z,0.40
2023-07-31T09:40:47.657Z,0.30
2023-07-31T09:45:58.291Z,0.30
2023-07-31T09:51:05.628Z,0.30
2023-07-31T09:56:07.626Z,0.20
2023-07-31T10:01:09.840Z,0.30
2023-07-31T10:06:13.040Z,0.30
2023-07-31T10:11:16.691Z,0.30
2023-07-31T10:16:19.814Z,0.30
2023-07-31T10:21:21.786Z,0.30
2023-07-31T10:26:24.976Z,0.30
2023-07-31T10:31:29.296Z,0.40
2023-07-31T10:36:31.109Z,0.30
2023-07-31T10:41:33.316Z,0.30
2023-07-31T10:46:36.118Z,0.20
2023-07-31T10:51:38.169Z,0.40
2023-07-31T10:56:41.373Z,0.30
2023-07-31T11:01:54.058Z,0.20
2023-07-31T11:07:00.952Z,0.40
2023-07-31T11:12:03.254Z,0.40
2023-07-31T11:17:09.066Z,0.40
2023-07-31T11:22:11.867Z,0.40
2023-07-31T11:27:13.904Z,0.40
2023-07-31T11:32:19.184Z,0.40
2023-07-31T11:37:21.638Z,0.20
2023-07-31T11:42:23.510Z,0.30
2023-07-31T11:47:27.206Z,0.30
2023-07-31T11:52:35.307Z,0.40
2023-07-31T11:57:40.669Z,0.30
2023-07-31T12:02:43.666Z,0.40
2023-07-31T12:07:52.739Z,0.30
2023-07-31T12:13:00.313Z,0.20
2023-07-31T12:23:08.086Z,0.40
2023-07-31T12:28:12.767Z,0.30
2023-07-31T12:33:16.180Z,0.40
2023-07-31T12:38:18.250Z,0.50
2023-07-31T12:43:21.445Z,0.40
2023-07-31T12:48:23.589Z,0.30
2023-07-31T12:53:25.754Z,0.20
2023-07-31T12:58:28.060Z,0.40
2023-07-31T13:03:30.051Z,0.40
2023-07-31T13:08:32.068Z,0.30
2023-07-31T13:13:34.091Z,0.30
2023-07-31T13:18:35.935Z,0.40
2023-07-31T13:23:38.232Z,0.40
2023-07-31T13:28:40.212Z,0.40
2023-07-31T13:33:44.255Z,0.40
2023-07-31T13:38:46.662Z,0.40
2023-07-31T13:43:48.615Z,0.40
2023-07-31T13:48:50.563Z,0.20
2023-07-31T13:53:52.506Z,0.30
2023-07-31T13:58:54.602Z,0.30
2023-07-31T14:03:56.698Z,0.20
2023-07-31T14:08:58.661Z,0.30
2023-07-31T14:14:02.505Z,0.20
2023-07-31T14:19:04.654Z,0.20
2023-07-31T14:24:07.213Z,0.30
2023-07-31T14:29:09.501Z,0.20
2023-07-31T14:34:11.467Z,0.40
2023-07-31T14:39:13.417Z,0.40
2023-07-31T14:44:16.489Z,0.30
2023-07-31T14:49:18.556Z,0.50
2023-07-31T14:54:20.700Z,0.30
2023-07-31T14:59:22.518Z,0.20
2023-07-31T15:04:24.697Z,0.30
2023-07-31T15:09:26.602Z,0.30
2023-07-31T15:14:32.429Z,0.30
2023-07-31T15:19:36.314Z,0.30
2023-07-31T15:24:38.302Z,0.40
2023-07-31T15:29:40.206Z,0.60
2023-07-31T15:34:42.433Z,0.30
2023-07-31T15:39:44.521Z,0.20
2023-07-31T15:44:46.592Z,0.20
2023-07-31T15:49:48.542Z,0.30
2023-07-31T15:54:54.497Z,0.30
2023-07-31T15:59:56.902Z,0.40
2023-07-31T16:04:59.124Z,0.40
2023-07-31T16:10:01.146Z,0.40
2023-07-31T16:15:03.117Z,0.30
2023-07-31T16:20:07.460Z,0.30
2023-07-31T16:25:12.563Z,0.30
2023-07-31T16:30:14.569Z,0.30
2023-07-31T16:35:17.027Z,0.30
2023-07-31T16:40:18.888Z,0.30
2023-07-31T16:45:20.760Z,0.40
2023-07-31T16:50:24.345Z,0.50
2023-07-31T16:55:28.859Z,0.30
2023-07-31T17:00:32.190Z,0.40
2023-07-31T17:05:34.292Z,0.40
2023-07-31T17:10:36.323Z,0.40
2023-07-31T17:15:38.231Z,0.40
2023-07-31T17:20:40.302Z,0.40
2023-07-31T17:25:42.334Z,0.40
2023-07-31T17:30:44.675Z,0.30
2023-07-31T17:35:47.007Z,0.50
2023-07-31T17:40:49.004Z,0.30
2023-07-31T17:45:51.996Z,0.40
2023-07-31T17:50:54.486Z,0.20
2023-07-31T17:55:56.381Z,0.40
2023-07-31T18:00:58.526Z,0.40
2023-07-31T18:06:00.476Z,0.30
2023-07-31T18:11:04.436Z,0.40
2023-07-31T18:16:06.388Z,0.30
2023-07-31T18:21:08.406Z,0.30
2023-07-31T18:26:10.422Z,0.20
2023-07-31T18:31:12.427Z,0.30
2023-07-31T18:36:14.505Z,0.30
2023-07-31T18:41:16.505Z,0.30
2023-07-31T18:46:18.680Z,0.50
2023-07-31T18:51:20.802Z,0.60
2023-07-31T18:56:22.714Z,0.50
2023-07-31T19:01:25.633Z,0.70
2023-07-31T19:06:28.769Z,0.40
2023-07-31T19:11:32.946Z,0.60
2023-07-31T19:16:35.341Z,0.40
2023-07-31T19:21:37.571Z,0.50
2023-07-31T19:26:42.740Z,0.40
2023-07-31T19:31:44.984Z,0.60
2023-07-31T19:36:49.257Z,0.60
2023-07-31T19:41:51.270Z,0.60
2023-07-31T19:46:53.475Z,0.60
2023-07-31T19:51:55.368Z,0.70
2023-07-31T19:56:58.561Z,0.60
2023-07-31T20:02:00.668Z,0.80
2023-07-31T20:07:02.553Z,0.50
2023-07-31T20:12:05.151Z,0.70
2023-07-31T20:17:07.109Z,0.70
2023-07-31T20:22:09.553Z,0.60
2023-07-31T20:27:11.577Z,0.80
2023-07-31T20:32:15.092Z,0.90
2023-07-31T20:37:17.286Z,0.90
2023-07-31T20:42:21.914Z,0.60
2023-07-31T20:47:24.220Z,0.80
2023-07-31T20:52:26.155Z,0.90
2023-07-31T20:57:29.194Z,0.70
2023-07-31T21:02:31.114Z,0.60
2023-07-31T21:07:33.196Z,0.70
2023-07-31T21:12:39.560Z,0.80
2023-07-31T21:17:41.553Z,0.90
2023-07-31T21:27:48.714Z,1.00
2023-07-31T21:38:14.972Z,0.90
2023-07-31T21:43:16.982Z,0.80
2023-07-31T21:48:19.183Z,0.90
2023-07-31T21:53:21.333Z,1.10
2023-07-31T21:58:23.304Z,1.00
2023-07-31T22:03:25.266Z,0.80
2023-07-31T22:08:27.434Z,0.80
2023-07-31T22:13:29.815Z,0.70
2023-07-31T22:18:31.870Z,0.90
2023-07-31T22:23:34.620Z,0.70
2023-07-31T22:28:36.728Z,0.90
2023-07-31T22:33:38.830Z,0.90
2023-07-31T22:38:40.924Z,0.70
2023-07-31T22:48:44.846Z,1.00
2023-07-31T22:58:48.538Z,0.70
2023-07-31T23:03:50.454Z,0.80
2023-07-31T23:08:54.733Z,0.70
2023-07-31T23:13:56.830Z,0.80
2023-07-31T23:18:58.762Z,0.80
2023-07-31T23:24:01.026Z,0.80
2023-07-31T23:29:03.108Z,0.80
2023-07-31T23:34:08.418Z,0.80
2023-07-31T23:39:30.384Z,0.70
2023-07-31T23:49:35.797Z,0.70
2023-07-31T23:54:37.891Z,0.60
2023-07-31T23:59:40.291Z,0.60
